Time;durP1;ratioP1;P1;durP2;ratioP2;P2;SDS_P1;SDS_P2;PMS_P1;PMS_P2;Temp;Humidity;BMP_temperature;BMP_pressure;BME280_temperature;BME280_humidity;BME280_pressure;Samples;Min_cycle;Max_cycle;Signal;HPM_P1;HPM_P2
2021/09/18 00:01:16;;;;;;;55.83;27.17;;;15.20;99.90;;;;;;5062448;28;20235;-82
2021/09/18 00:03:44;;;;;;;57.07;30.37;;;15.10;99.90;;;;;;5068429;28;20205;-82
2021/09/18 00:06:11;;;;;;;53.53;28.90;;;15.10;99.90;;;;;;5073404;28;20660;-82
2021/09/18 00:08:38;;;;;;;60.43;31.17;;;15.20;99.90;;;;;;5072972;28;20286;-81
2021/09/18 00:11:05;;;;;;;63.73;32.00;;;15.20;99.90;;;;;;5073239;28;20200;-82
2021/09/18 00:13:32;;;;;;;59.63;30.67;;;15.20;99.90;;;;;;5073344;28;20293;-82
2021/09/18 00:15:59;;;;;;;54.90;29.67;;;15.20;99.90;;;;;;5072269;28;20574;-82
2021/09/18 00:18:26;;;;;;;56.40;31.90;;;15.20;99.90;;;;;;5072661;28;20234;-82
2021/09/18 00:20:55;;;;;;;61.50;31.63;;;15.20;99.90;;;;;;5071889;28;20208;-82
2021/09/18 00:23:22;;;;;;;63.90;31.03;;;15.10;99.90;;;;;;5073165;28;20679;-81
2021/09/18 00:25:49;;;;;;;61.37;30.80;;;15.00;99.90;;;;;;5071552;28;20200;-82
2021/09/18 00:28:16;;;;;;;65.63;31.93;;;15.10;99.90;;;;;;5073157;28;20219;-82
2021/09/18 00:30:43;;;;;;;64.77;33.37;;;15.10;99.90;;;;;;5072433;28;20648;-82
2021/09/18 00:33:09;;;;;;;61.07;31.17;;;15.10;99.90;;;;;;5072005;28;20215;-81
2021/09/18 00:35:36;;;;;;;62.37;30.93;;;15.10;99.90;;;;;;5072578;28;20225;-81
2021/09/18 00:38:05;;;;;;;53.37;30.60;;;15.10;99.90;;;;;;5072274;28;20203;-82
2021/09/18 00:40:31;;;;;;;55.27;29.97;;;15.10;99.90;;;;;;5062277;28;20215;-81
2021/09/18 00:42:58;;;;;;;63.30;31.83;;;15.10;99.90;;;;;;5062857;28;20204;-81
2021/09/18 00:45:25;;;;;;;58.40;30.70;;;15.00;99.90;;;;;;5063799;28;20210;-81
2021/09/18 00:47:52;;;;;;;55.57;30.63;;;14.90;99.90;;;;;;5060667;28;20599;-81
2021/09/18 00:50:19;;;;;;;60.13;31.20;;;14.90;99.90;;;;;;5064040;28;20736;-81
2021/09/18 00:52:47;;;;;;;58.83;31.33;;;14.90;99.90;;;;;;5073092;28;20199;-81
2021/09/18 00:55:16;;;;;;;63.73;33.23;;;14.90;99.90;;;;;;5072980;28;20294;-82
2021/09/18 00:57:43;;;;;;;66.43;33.13;;;15.00;99.90;;;;;;5073179;28;20196;-82
2021/09/18 01:00:13;;;;;;;68.87;34.93;;;14.90;99.90;;;;;;5072773;28;20691;-82
2021/09/18 01:02:41;;;;;;;75.40;34.33;;;14.90;99.90;;;;;;5073352;28;20196;-82
2021/09/18 01:05:09;;;;;;;69.27;34.37;;;14.90;99.90;;;;;;5072219;28;20299;-81
2021/09/18 01:07:37;;;;;;;70.03;34.97;;;14.90;99.90;;;;;;5072079;28;20764;-82
2021/09/18 01:10:05;;;;;;;68.57;35.03;;;14.90;99.90;;;;;;5071189;28;20552;-82
2021/09/18 01:12:33;;;;;;;72.30;35.53;;;14.80;99.90;;;;;;5071231;28;20199;-81
2021/09/18 01:15:00;;;;;;;81.53;35.73;;;14.80;99.90;;;;;;5070704;28;20291;-81
2021/09/18 01:17:27;;;;;;;79.17;37.00;;;14.80;99.90;;;;;;5070849;28;20549;-81
2021/09/18 01:19:54;;;;;;;87.97;39.10;;;14.80;99.90;;;;;;5070724;28;20223;-82
2021/09/18 01:22:24;;;;;;;79.30;36.30;;;14.80;99.90;;;;;;5071164;28;20294;-81
2021/09/18 01:24:52;;;;;;;80.63;36.67;;;14.80;99.90;;;;;;5072115;28;20275;-82
2021/09/18 01:27:19;;;;;;;75.87;34.30;;;14.70;99.90;;;;;;5072822;28;20670;-82
2021/09/18 01:29:46;;;;;;;77.50;36.70;;;14.60;99.90;;;;;;5072731;28;20203;-82
2021/09/18 01:32:17;;;;;;;82.90;37.47;;;14.70;99.90;;;;;;5072572;28;20211;-82
2021/09/18 01:34:44;;;;;;;85.10;38.50;;;14.70;99.90;;;;;;5072755;28;20249;-81
2021/09/18 01:37:11;;;;;;;74.50;37.50;;;14.70;99.90;;;;;;5073078;28;20298;-82
2021/09/18 01:39:37;;;;;;;79.13;37.67;;;14.70;99.90;;;;;;5072642;28;20318;-82
2021/09/18 01:42:06;;;;;;;75.80;36.13;;;14.80;99.90;;;;;;5072627;28;20226;-81
2021/09/18 01:44:33;;;;;;;69.67;35.53;;;14.80;99.90;;;;;;5072656;28;20238;-82
2021/09/18 01:47:00;;;;;;;76.30;36.47;;;14.70;99.90;;;;;;5072419;28;20294;-82
2021/09/18 01:49:28;;;;;;;73.30;35.77;;;14.70;99.90;;;;;;5072700;28;20286;-82
2021/09/18 01:51:57;;;;;;;76.43;37.37;;;14.70;99.90;;;;;;5072690;28;20203;-77
2021/09/18 01:54:28;;;;;;;78.03;37.10;;;14.70;99.90;;;;;;5063033;28;20257;-82
2021/09/18 01:56:55;;;;;;;80.10;39.47;;;14.70;99.90;;;;;;5066285;28;20205;-80
2021/09/18 01:59:23;;;;;;;84.70;40.73;;;14.70;99.90;;;;;;5075068;28;20309;-81
2021/09/18 02:01:50;;;;;;;81.97;38.43;;;14.70;99.90;;;;;;5076122;28;20556;-82
2021/09/18 02:04:17;;;;;;;75.90;35.93;;;14.70;99.90;;;;;;5076128;28;20611;-82
2021/09/18 02:06:43;;;;;;;90.77;41.50;;;14.60;99.90;;;;;;5076227;28;20289;-81
2021/09/18 02:09:10;;;;;;;80.57;38.80;;;14.60;99.90;;;;;;5075847;28;20192;-82
2021/09/18 02:11:37;;;;;;;85.50;38.73;;;14.70;99.90;;;;;;5076131;28;20707;-82
2021/09/18 02:14:04;;;;;;;84.90;39.07;;;14.60;99.90;;;;;;5076060;28;20208;-81
2021/09/18 02:16:32;;;;;;;83.13;37.87;;;14.60;99.90;;;;;;5076748;28;20199;-82
2021/09/18 02:18:59;;;;;;;89.20;40.40;;;14.60;99.90;;;;;;5076174;28;20217;-82
2021/09/18 02:21:26;;;;;;;92.30;40.90;;;14.60;99.90;;;;;;5076236;28;20206;-82
2021/09/18 02:23:53;;;;;;;89.90;40.40;;;14.50;99.90;;;;;;5075930;28;20213;-82
2021/09/18 02:26:20;;;;;;;90.80;38.63;;;14.50;99.90;;;;;;5075514;28;20199;-82
2021/09/18 02:28:46;;;;;;;92.00;41.07;;;14.60;99.90;;;;;;5076114;28;20699;-82
2021/09/18 02:31:13;;;;;;;95.47;42.03;;;14.50;99.90;;;;;;5076167;28;20206;-82
2021/09/18 02:33:41;;;;;;;95.87;40.87;;;14.50;99.90;;;;;;5076101;28;20299;-82
2021/09/18 02:36:08;;;;;;;99.33;41.93;;;14.50;99.90;;;;;;5075442;28;20548;-83
2021/09/18 02:38:35;;;;;;;94.73;41.27;;;14.50;99.90;;;;;;5076119;28;20202;-82
2021/09/18 02:41:02;;;;;;;102.87;41.37;;;14.40;99.90;;;;;;5075704;28;20227;-82
2021/09/18 02:43:29;;;;;;;105.13;42.67;;;14.40;99.90;;;;;;5075631;28;20209;-82
2021/09/18 02:45:56;;;;;;;98.27;41.53;;;14.50;99.90;;;;;;5075721;28;20286;-82
2021/09/18 02:48:23;;;;;;;106.17;44.23;;;14.40;99.90;;;;;;5075629;28;20286;-82
2021/09/18 02:50:51;;;;;;;96.37;40.37;;;14.40;99.90;;;;;;5075441;28;20199;-82
2021/09/18 02:53:18;;;;;;;108.73;44.10;;;14.30;99.90;;;;;;5075493;28;20203;-82
2021/09/18 02:55:45;;;;;;;105.30;42.77;;;14.30;99.90;;;;;;5075200;28;20200;-82
2021/09/18 02:58:11;;;;;;;106.00;42.90;;;14.40;99.90;;;;;;5075381;28;20294;-82
2021/09/18 03:00:38;;;;;;;105.20;42.57;;;14.40;99.90;;;;;;5074909;28;20714;-82
2021/09/18 03:03:05;;;;;;;102.80;39.90;;;14.40;99.90;;;;;;5075442;28;20209;-82
2021/09/18 03:05:32;;;;;;;97.60;42.80;;;14.40;99.90;;;;;;5075178;28;20657;-82
2021/09/18 03:08:00;;;;;;;105.10;42.13;;;14.30;99.90;;;;;;5074740;28;20229;-82
2021/09/18 03:10:27;;;;;;;109.87;44.10;;;14.30;99.90;;;;;;5074506;28;20646;-82
2021/09/18 03:12:54;;;;;;;99.83;41.30;;;14.30;99.90;;;;;;5075058;28;20560;-82
2021/09/18 03:15:21;;;;;;;101.97;43.03;;;14.30;99.90;;;;;;5075246;28;20200;-81
2021/09/18 03:17:48;;;;;;;90.37;39.23;;;14.30;99.90;;;;;;5075603;28;20222;-82
2021/09/18 03:20:14;;;;;;;96.37;40.27;;;14.30;99.90;;;;;;5075289;28;20223;-82
2021/09/18 03:22:41;;;;;;;97.80;41.27;;;14.20;99.90;;;;;;5074566;28;20203;-81
2021/09/18 03:25:11;;;;;;;93.83;40.47;;;14.30;99.90;;;;;;5074998;28;20211;-82
2021/09/18 03:27:38;;;;;;;87.23;39.23;;;14.30;99.90;;;;;;5075336;28;20287;-81
2021/09/18 03:30:06;;;;;;;91.40;39.40;;;14.20;99.90;;;;;;5074828;28;20239;-81
2021/09/18 03:32:33;;;;;;;83.43;38.30;;;14.20;99.90;;;;;;5074372;28;20225;-81
2021/09/18 03:35:00;;;;;;;76.67;36.47;;;14.20;99.90;;;;;;5074325;28;20565;-82
2021/09/18 03:37:27;;;;;;;82.70;38.50;;;14.20;99.90;;;;;;5074963;28;20589;-82
2021/09/18 03:39:54;;;;;;;87.33;38.97;;;14.20;99.90;;;;;;5074062;28;20226;-82
2021/09/18 03:42:22;;;;;;;83.30;40.37;;;14.10;99.90;;;;;;5074712;28;20199;-82
2021/09/18 03:44:49;;;;;;;84.93;39.30;;;14.10;99.90;;;;;;5074421;28;20301;-83
2021/09/18 03:47:16;;;;;;;99.43;43.47;;;14.10;99.90;;;;;;5074823;28;20235;-81
2021/09/18 03:49:43;;;;;;;93.47;39.97;;;14.10;99.90;;;;;;5074045;28;20660;-82
2021/09/18 03:52:10;;;;;;;96.00;42.27;;;14.00;99.90;;;;;;5074795;28;20282;-82
2021/09/18 03:54:37;;;;;;;95.20;42.03;;;14.00;99.90;;;;;;5074604;28;20551;-82
2021/09/18 03:57:04;;;;;;;81.87;40.07;;;14.00;99.90;;;;;;5073974;28;20643;-81
2021/09/18 03:59:33;;;;;;;93.20;43.13;;;14.10;99.90;;;;;;5074033;28;20282;-82
2021/09/18 04:01:59;;;;;;;98.20;42.23;;;14.10;99.90;;;;;;5074242;28;20239;-82
2021/09/18 04:04:26;;;;;;;94.33;42.87;;;14.20;99.90;;;;;;5060165;28;20653;-82
2021/09/18 04:06:53;;;;;;;92.13;41.03;;;14.10;99.90;;;;;;5074318;28;20211;-82
2021/09/18 04:09:20;;;;;;;90.50;39.90;;;14.10;99.90;;;;;;5073732;28;20202;-81
2021/09/18 04:11:47;;;;;;;91.53;40.37;;;14.00;99.90;;;;;;5074217;28;20223;-83
2021/09/18 04:14:14;;;;;;;90.27;40.13;;;14.10;99.90;;;;;;5078808;28;20289;-82
2021/09/18 04:16:42;;;;;;;93.40;39.20;;;14.20;99.90;;;;;;5081028;28;20298;-82
2021/09/18 04:19:09;;;;;;;98.10;42.83;;;14.20;99.90;;;;;;5073089;28;20211;-82
2021/09/18 04:21:36;;;;;;;104.07;42.80;;;14.20;99.90;;;;;;5073362;28;20223;-82
2021/09/18 04:24:04;;;;;;;102.30;43.63;;;14.20;99.90;;;;;;5073911;28;20226;-82
2021/09/18 04:26:32;;;;;;;110.93;45.30;;;14.10;99.90;;;;;;5073558;28;20202;-82
2021/09/18 04:28:59;;;;;;;100.13;43.53;;;14.20;99.90;;;;;;5073555;28;20290;-82
2021/09/18 04:31:26;;;;;;;106.13;43.77;;;14.10;99.90;;;;;;5073873;28;20200;-81
2021/09/18 04:33:55;;;;;;;97.97;43.23;;;14.10;99.90;;;;;;5073474;28;20648;-82
2021/09/18 04:36:22;;;;;;;105.63;43.67;;;14.00;99.90;;;;;;5073875;28;20638;-82
2021/09/18 04:38:49;;;;;;;113.53;45.63;;;14.00;99.90;;;;;;5073475;28;20232;-82
2021/09/18 04:41:16;;;;;;;114.10;44.37;;;13.90;99.90;;;;;;5073525;28;20223;-82
2021/09/18 04:43:44;;;;;;;101.60;42.50;;;13.90;99.90;;;;;;5073331;28;20219;-82
2021/09/18 04:46:11;;;;;;;103.50;43.83;;;13.90;99.90;;;;;;5073118;28;20577;-82
2021/09/18 04:48:38;;;;;;;103.50;45.37;;;14.00;99.90;;;;;;5073206;28;20649;-82
2021/09/18 04:51:06;;;;;;;108.43;44.70;;;13.90;99.90;;;;;;5073524;28;20199;-82
2021/09/18 04:53:33;;;;;;;115.97;46.13;;;13.90;99.90;;;;;;5073255;28;20283;-82
2021/09/18 04:56:00;;;;;;;124.63;47.37;;;13.80;99.90;;;;;;5072847;28;20290;-82
2021/09/18 04:58:27;;;;;;;107.10;45.20;;;13.70;99.90;;;;;;5073103;28;20212;-82
2021/09/18 05:00:54;;;;;;;99.83;44.30;;;13.80;99.90;;;;;;5072792;28;20221;-82
2021/09/18 05:03:21;;;;;;;104.63;45.00;;;13.80;99.90;;;;;;5071707;28;20294;-83
2021/09/18 05:05:47;;;;;;;101.80;44.07;;;13.90;99.90;;;;;;5073220;28;20221;-82
2021/09/18 05:08:16;;;;;;;97.67;43.27;;;13.90;99.90;;;;;;5073315;28;20333;-82
2021/09/18 05:10:43;;;;;;;95.27;43.17;;;13.80;99.90;;;;;;5072766;28;20230;-82
2021/09/18 05:13:10;;;;;;;102.40;45.07;;;13.80;99.90;;;;;;5073235;28;20294;-82
2021/09/18 05:15:37;;;;;;;108.00;45.27;;;13.80;99.90;;;;;;5072626;28;20208;-82
2021/09/18 05:18:03;;;;;;;103.20;42.77;;;14.00;99.90;;;;;;5073416;28;20211;-82
2021/09/18 05:20:30;;;;;;;108.07;45.23;;;14.00;99.90;;;;;;5073061;28;20257;-82
2021/09/18 05:22:57;;;;;;;106.23;45.03;;;14.00;99.90;;;;;;5072843;28;20261;-81
2021/09/18 05:25:26;;;;;;;113.90;45.30;;;14.00;99.90;;;;;;5072804;28;20214;-82
2021/09/18 05:27:52;;;;;;;113.27;44.80;;;14.00;99.90;;;;;;5072817;28;20217;-81
2021/09/18 05:30:19;;;;;;;117.13;47.77;;;14.00;99.90;;;;;;5072316;28;20241;-82
2021/09/18 05:32:46;;;;;;;120.37;47.77;;;14.00;99.90;;;;;;5072230;28;20218;-82
2021/09/18 05:35:13;;;;;;;117.47;46.53;;;13.90;99.90;;;;;;5072829;28;20203;-82
2021/09/18 05:37:40;;;;;;;121.27;47.10;;;14.00;99.90;;;;;;5073038;28;20298;-82
2021/09/18 05:40:08;;;;;;;130.33;47.93;;;13.90;99.90;;;;;;5072512;28;20214;-82
2021/09/18 05:42:38;;;;;;;118.17;47.80;;;14.00;99.90;;;;;;5072886;28;20294;-82
2021/09/18 05:45:06;;;;;;;124.70;49.20;;;14.10;99.90;;;;;;5072510;28;20215;-82
2021/09/18 05:47:33;;;;;;;126.03;48.80;;;14.00;99.90;;;;;;5073034;28;20286;-82
2021/09/18 05:50:00;;;;;;;118.27;48.60;;;14.10;99.90;;;;;;5072278;28;20660;-81
2021/09/18 05:52:26;;;;;;;127.17;48.30;;;14.10;99.90;;;;;;5072572;28;20561;-82
2021/09/18 05:54:53;;;;;;;118.00;48.50;;;14.10;99.90;;;;;;5072402;28;20282;-82
2021/09/18 05:57:20;;;;;;;130.30;48.10;;;14.20;99.90;;;;;;5072697;28;20207;-82
2021/09/18 05:59:48;;;;;;;117.40;46.83;;;14.20;99.90;;;;;;5072615;28;20634;-81
2021/09/18 06:02:15;;;;;;;112.97;45.83;;;14.30;99.90;;;;;;5070795;28;20225;-82
2021/09/18 06:04:42;;;;;;;104.23;43.53;;;14.30;99.90;;;;;;5071325;28;20201;-82
2021/09/18 06:07:10;;;;;;;102.83;43.97;;;14.50;99.90;;;;;;5071085;28;20290;-82
2021/09/18 06:09:37;;;;;;;99.83;42.73;;;14.50;99.90;;;;;;5072052;28;20698;-81
2021/09/18 06:12:04;;;;;;;102.17;42.93;;;14.60;99.90;;;;;;5071041;28;20649;-82
2021/09/18 06:14:31;;;;;;;101.83;44.80;;;14.80;99.90;;;;;;5071053;28;20731;-82
2021/09/18 06:16:59;;;;;;;97.07;44.13;;;14.90;99.90;;;;;;5067495;28;20236;-83
2021/09/18 06:19:27;;;;;;;97.20;43.27;;;15.00;99.90;;;;;;5064339;28;20231;-82
2021/09/18 06:21:54;;;;;;;90.87;41.33;;;15.10;99.90;;;;;;5064432;28;20224;-83
2021/09/18 06:24:21;;;;;;;89.30;40.70;;;15.10;99.90;;;;;;5055624;28;20200;-82
2021/09/18 06:26:48;;;;;;;86.67;41.87;;;15.20;99.90;;;;;;5065688;28;20200;-83
2021/09/18 06:29:14;;;;;;;80.23;38.03;;;15.40;99.90;;;;;;5053917;28;20662;-81
2021/09/18 06:31:41;;;;;;;76.53;38.10;;;15.50;99.90;;;;;;5064177;28;20291;-82
2021/09/18 06:34:10;;;;;;;78.60;39.10;;;15.60;99.90;;;;;;5053768;28;20243;-82
2021/09/18 06:36:37;;;;;;;74.70;36.30;;;15.70;99.90;;;;;;5055534;28;20206;-82
2021/09/18 06:39:05;;;;;;;67.70;35.10;;;15.90;99.90;;;;;;5054340;28;20608;-82
2021/09/18 06:41:32;;;;;;;60.80;34.37;;;15.90;99.90;;;;;;5055494;28;20306;-82
2021/09/18 06:43:59;;;;;;;67.33;34.23;;;16.00;99.90;;;;;;5074108;28;20676;-82
2021/09/18 06:46:26;;;;;;;54.90;31.80;;;16.10;99.90;;;;;;5058932;28;20291;-81
2021/09/18 06:48:53;;;;;;;58.83;32.30;;;16.20;99.90;;;;;;5057740;28;20300;-81
2021/09/18 06:51:21;;;;;;;51.93;29.47;;;16.30;99.90;;;;;;5068026;28;20200;-81
2021/09/18 06:53:48;;;;;;;48.97;29.10;;;16.50;99.90;;;;;;5058053;28;20206;-81
2021/09/18 06:56:15;;;;;;;49.20;29.87;;;16.50;99.90;;;;;;5057334;28;20291;-82
2021/09/18 06:58:41;;;;;;;49.47;30.57;;;16.60;99.90;;;;;;5069601;28;20265;-82
2021/09/18 07:01:08;;;;;;;50.27;29.03;;;16.70;99.90;;;;;;5075460;28;20314;-82
2021/09/18 07:03:35;;;;;;;45.10;28.97;;;16.70;99.90;;;;;;5075165;28;20294;-81
2021/09/18 07:06:02;;;;;;;45.30;28.00;;;16.90;99.90;;;;;;5075490;28;20238;-81
2021/09/18 07:08:31;;;;;;;42.20;27.07;;;17.00;99.90;;;;;;5075094;28;20290;-81
2021/09/18 07:10:58;;;;;;;43.73;27.00;;;17.20;99.90;;;;;;5075142;28;20199;-81
2021/09/18 07:13:25;;;;;;;38.00;25.87;;;17.30;99.90;;;;;;5074903;28;20215;-81
2021/09/18 07:15:52;;;;;;;36.80;25.30;;;17.50;99.90;;;;;;5074654;28;20740;-81
2021/09/18 07:18:19;;;;;;;35.83;24.60;;;17.60;99.90;;;;;;5074840;28;20232;-81
2021/09/18 07:20:46;;;;;;;35.80;24.03;;;17.60;99.90;;;;;;5069075;28;20230;-80
2021/09/18 07:23:13;;;;;;;37.73;23.70;;;17.70;99.90;;;;;;5073766;28;20200;-81
2021/09/18 07:25:41;;;;;;;35.30;23.30;;;17.90;99.90;;;;;;5081098;28;20711;-81
2021/09/18 07:28:10;;;;;;;34.23;23.80;;;18.00;99.90;;;;;;5085427;28;20302;-81
2021/09/18 07:30:37;;;;;;;38.00;24.27;;;18.00;99.90;;;;;;5074300;28;20324;-80
2021/09/18 07:33:05;;;;;;;34.60;23.37;;;18.10;99.90;;;;;;5073953;28;20292;-80
2021/09/18 07:35:33;;;;;;;35.50;24.30;;;18.20;99.90;;;;;;5074403;28;20200;-80
2021/09/18 07:38:03;;;;;;;38.90;24.57;;;18.30;99.90;;;;;;5074713;28;20207;-80
2021/09/18 07:40:31;;;;;;;40.90;24.77;;;18.40;99.90;;;;;;5073886;28;20207;-80
2021/09/18 07:42:59;;;;;;;33.77;23.57;;;18.60;99.90;;;;;;5074820;28;20203;-81
2021/09/18 07:45:26;;;;;;;34.60;24.07;;;18.60;99.90;;;;;;5074677;28;20214;-81
2021/09/18 07:47:53;;;;;;;38.67;24.47;;;18.70;99.90;;;;;;5067838;28;20288;-80
2021/09/18 07:50:20;;;;;;;35.73;23.67;;;18.70;99.90;;;;;;5067394;28;20678;-80
2021/09/18 07:52:47;;;;;;;37.60;23.67;;;18.90;99.90;;;;;;5063444;28;20192;-80
2021/09/18 07:55:14;;;;;;;34.70;24.13;;;18.90;99.90;;;;;;5066957;28;20210;-81
2021/09/18 07:57:41;;;;;;;32.53;22.73;;;19.00;99.90;;;;;;5067254;28;20624;-81
2021/09/18 08:00:11;;;;;;;32.83;23.50;;;19.10;99.90;;;;;;5073452;28;20668;-81
2021/09/18 08:02:38;;;;;;;34.77;22.83;;;19.20;99.90;;;;;;5070078;28;20307;-80
2021/09/18 08:05:06;;;;;;;31.77;22.00;;;19.40;99.90;;;;;;5071826;28;20231;-81
2021/09/18 08:07:34;;;;;;;34.60;21.53;;;19.50;99.90;;;;;;5072768;28;20211;-82
2021/09/18 08:10:00;;;;;;;32.03;20.30;;;19.60;99.90;;;;;;5065809;28;20279;-81
2021/09/18 08:12:27;;;;;;;32.70;21.50;;;19.70;99.90;;;;;;5068922;28;20307;-81
2021/09/18 08:14:54;;;;;;;31.70;21.30;;;19.80;99.90;;;;;;5072240;28;20204;-80
2021/09/18 08:17:22;;;;;;;26.23;18.73;;;19.80;99.90;;;;;;5071398;28;20283;-80
2021/09/18 08:19:49;;;;;;;23.30;17.57;;;19.80;99.90;;;;;;5072338;28;20184;-80
2021/09/18 08:22:16;;;;;;;30.17;17.53;;;19.70;99.90;;;;;;5073283;28;20227;-81
2021/09/18 08:24:43;;;;;;;22.53;17.47;;;19.70;99.90;;;;;;5072728;28;20250;-80
2021/09/18 08:27:10;;;;;;;24.50;16.93;;;19.80;99.90;;;;;;5071255;28;20199;-80
2021/09/18 08:29:38;;;;;;;22.87;15.87;;;19.90;99.90;;;;;;5071717;28;20199;-80
2021/09/18 08:32:05;;;;;;;21.10;16.30;;;19.80;99.90;;;;;;5081797;28;20199;-80
2021/09/18 08:34:33;;;;;;;18.53;15.13;;;19.80;99.90;;;;;;5072355;28;20282;-80
2021/09/18 08:37:01;;;;;;;19.57;15.17;;;19.90;99.90;;;;;;5073042;28;20203;-80
2021/09/18 08:39:28;;;;;;;19.70;14.53;;;19.80;99.90;;;;;;5071159;28;20195;-80
2021/09/18 08:41:55;;;;;;;18.17;14.60;;;20.00;99.90;;;;;;5072547;28;20211;-80
2021/09/18 08:44:22;;;;;;;17.63;13.53;;;20.10;99.90;;;;;;5072780;28;20725;-80
2021/09/18 08:46:50;;;;;;;17.27;13.70;;;20.10;99.90;;;;;;5077824;28;20209;-79
2021/09/18 08:49:17;;;;;;;16.67;14.03;;;20.40;99.90;;;;;;5072871;28;20207;-80
2021/09/18 08:51:46;;;;;;;19.33;13.33;;;20.50;99.90;;;;;;5073094;28;20192;-81
2021/09/18 08:54:13;;;;;;;15.33;12.97;;;20.60;99.90;;;;;;5076122;28;20199;-80
2021/09/18 08:56:40;;;;;;;15.30;13.13;;;20.70;99.90;;;;;;5077297;28;20282;-80
2021/09/18 08:59:07;;;;;;;19.00;13.03;;;20.80;99.90;;;;;;5082819;28;20558;-80
2021/09/18 09:01:34;;;;;;;18.40;12.23;;;20.80;99.90;;;;;;5070180;28;20265;-80
2021/09/18 09:04:04;;;;;;;20.50;14.43;;;20.70;99.90;;;;;;5071711;28;20219;-80
2021/09/18 09:06:42;;;;;;;16.50;13.57;;;20.70;99.90;;;;;;5072192;28;20205;-80
2021/09/18 09:09:11;;;;;;;19.33;13.83;;;20.70;99.90;;;;;;5073068;28;20211;-80
2021/09/18 09:11:48;;;;;;;18.43;13.00;;;20.70;99.90;;;;;;5072372;28;20664;-80
2021/09/18 09:14:15;;;;;;;18.30;12.80;;;20.70;99.90;;;;;;5075262;28;20604;-81
2021/09/18 09:16:56;;;;;;;15.30;12.93;;;20.90;99.90;;;;;;5078646;28;20282;-80
2021/09/18 09:19:24;;;;;;;15.80;12.97;;;21.00;99.90;;;;;;5082920;28;20686;-80
2021/09/18 09:21:53;;;;;;;14.20;12.23;;;21.20;99.90;;;;;;5078473;28;20213;-81
2021/09/18 09:24:24;;;;;;;16.83;13.17;;;21.30;99.90;;;;;;5081890;28;20588;-80
2021/09/18 09:27:08;;;;;;;18.20;13.17;;;21.30;99.90;;;;;;5076601;28;20217;-80
2021/09/18 09:29:51;;;;;;;15.87;13.00;;;21.40;99.90;;;;;;5072469;28;20207;-80
2021/09/18 09:32:29;;;;;;;22.67;15.40;;;21.40;99.90;;;;;;5075233;28;20213;-81
2021/09/18 09:34:56;;;;;;;18.60;14.50;;;21.40;99.90;;;;;;5078004;28;20205;-80
2021/09/18 09:37:24;;;;;;;19.47;13.93;;;21.50;99.90;;;;;;5077467;28;20568;-80
2021/09/18 09:39:55;;;;;;;19.97;13.90;;;21.50;99.90;;;;;;5072481;28;20563;-81
2021/09/18 09:42:27;;;;;;;18.85;13.65;;;21.40;99.90;;;;;;5079425;28;20256;-80
2021/09/18 09:44:55;;;;;;;20.95;15.10;;;21.50;99.90;;;;;;5079281;28;20198;-78
2021/09/18 09:47:23;;;;;;;19.48;13.93;;;21.60;99.90;;;;;;5080421;28;20242;-80
2021/09/18 09:49:53;;;;;;;18.30;13.98;;;22.00;99.90;;;;;;5074717;28;20282;-80
2021/09/18 09:52:23;;;;;;;17.08;13.80;;;22.20;99.90;;;;;;5078079;28;20188;-80
2021/09/18 09:54:51;;;;;;;16.90;12.65;;;22.70;99.90;;;;;;5072197;28;20568;-80
2021/09/18 09:57:19;;;;;;;17.10;12.07;;;23.50;99.90;;;;;;5071624;28;20191;-80
2021/09/18 09:59:46;;;;;;;14.18;10.88;;;24.20;99.90;;;;;;5072113;28;20553;-81
2021/09/18 10:02:14;;;;;;;13.65;10.98;;;24.90;99.90;;;;;;5071975;28;20317;-80
2021/09/18 10:04:41;;;;;;;12.45;10.15;;;25.60;99.90;;;;;;5078552;28;20200;-80
2021/09/18 10:07:11;;;;;;;12.80;10.32;;;26.30;99.90;;;;;;5078028;28;20245;-80
2021/09/18 10:09:38;;;;;;;20.73;9.95;;;27.20;99.90;;;;;;5071741;28;20199;-80
2021/09/18 10:12:06;;;;;;;15.27;9.45;;;27.80;99.90;;;;;;5076619;28;20263;-80
2021/09/18 10:14:35;;;;;;;14.15;10.20;;;27.90;99.90;;;;;;5075478;28;20235;-80
2021/09/18 10:17:06;;;;;;;12.73;8.95;;;28.00;99.90;;;;;;5064672;28;20299;-81
2021/09/18 10:25:15;;;;;;;10.48;8.48;;;28.30;99.90;;;;;;5065149;28;20221;-81
2021/09/18 10:27:58;;;;;;;11.07;9.27;;;28.40;99.90;;;;;;5065813;28;20687;-81
2021/09/18 10:30:31;;;;;;;12.90;9.90;;;28.20;99.90;;;;;;5071226;28;20290;-79
2021/09/18 10:32:59;;;;;;;11.52;9.05;;;27.60;99.90;;;;;;5073451;28;20234;-80
2021/09/18 10:35:26;;;;;;;12.45;7.78;;;27.10;99.90;;;;;;5075192;28;20199;-81
2021/09/18 10:37:53;;;;;;;8.90;7.28;;;26.80;99.90;;;;;;5073978;28;20199;-79
2021/09/18 10:40:20;;;;;;;9.18;6.95;;;27.60;99.90;;;;;;5072322;28;20199;-80
2021/09/18 10:42:49;;;;;;;7.60;6.80;;;28.30;99.90;;;;;;5072999;28;20318;-80
2021/09/18 10:45:18;;;;;;;8.85;6.38;;;28.40;99.90;;;;;;5069700;28;20204;-81
2021/09/18 10:47:48;;;;;;;9.73;7.10;;;29.30;99.90;;;;;;5066337;28;20203;-80
2021/09/18 10:50:38;;;;;;;10.25;7.25;;;29.40;99.90;;;;;;5070270;28;20208;-80
2021/09/18 10:53:08;;;;;;;8.57;7.63;;;29.90;99.90;;;;;;5072119;28;20236;-80
2021/09/18 10:55:53;;;;;;;11.95;8.07;;;29.40;99.90;;;;;;5071931;28;20291;-81
2021/09/18 10:58:20;;;;;;;10.18;7.68;;;28.80;99.90;;;;;;5072220;28;20231;-80
2021/09/18 11:00:53;;;;;;;11.98;8.00;;;28.30;99.90;;;;;;5072558;28;20220;-81
2021/09/18 11:03:37;;;;;;;13.18;9.65;;;28.20;99.90;;;;;;5067318;28;20239;-81
2021/09/18 11:06:04;;;;;;;10.88;8.65;;;28.20;99.90;;;;;;5071911;28;20636;-81
2021/09/18 11:08:40;;;;;;;12.55;9.15;;;28.40;99.90;;;;;;5071710;28;20227;-81
2021/09/18 11:11:13;;;;;;;11.65;9.23;;;28.10;99.90;;;;;;5072538;28;20249;-80
2021/09/18 11:13:43;;;;;;;10.63;8.27;;;26.80;99.90;;;;;;5069576;28;20618;-81
2021/09/18 11:16:22;;;;;;;12.95;8.68;;;27.30;99.90;;;;;;5072045;28;20203;-80
2021/09/18 11:19:11;;;;;;;12.43;7.95;;;27.10;99.90;;;;;;5062463;28;20664;-80
2021/09/18 11:21:40;;;;;;;11.30;8.63;;;26.50;99.90;;;;;;5062519;28;20208;-80
2021/09/18 11:24:22;;;;;;;9.88;8.38;;;27.00;99.90;;;;;;5068951;28;20202;-80
2021/09/18 11:26:51;;;;;;;10.25;7.60;;;27.60;99.90;;;;;;5065774;28;20210;-81
2021/09/18 11:29:37;;;;;;;10.40;7.60;;;27.90;99.90;;;;;;5069172;28;20204;-81
2021/09/18 11:32:13;;;;;;;12.98;9.57;;;28.20;99.90;;;;;;5070587;28;20203;-81
2021/09/18 11:34:45;;;;;;;13.20;10.25;;;27.90;99.90;;;;;;5066311;28;20720;-81
2021/09/18 11:37:19;;;;;;;11.50;9.60;;;26.50;99.90;;;;;;5055188;28;20232;-80
2021/09/18 11:39:49;;;;;;;14.57;10.57;;;26.00;99.90;;;;;;5063519;28;20563;-80
2021/09/18 11:42:19;;;;;;;10.75;9.13;;;26.80;99.90;;;;;;5057186;28;20216;-80
2021/09/18 11:44:48;;;;;;;15.27;10.77;;;27.20;99.90;;;;;;5060009;28;20278;-80
2021/09/18 11:47:22;;;;;;;12.80;9.45;;;25.80;99.90;;;;;;5060397;28;20599;-81
2021/09/18 11:49:50;;;;;;;11.00;8.25;;;25.50;99.90;;;;;;5063973;28;20199;-78
2021/09/18 11:52:17;;;;;;;10.13;8.23;;;25.50;99.90;;;;;;5063035;28;20316;-80
2021/09/18 11:54:44;;;;;;;15.15;10.57;;;25.20;99.90;;;;;;5069590;28;20649;-81
2021/09/18 11:57:16;;;;;;;14.85;10.85;;;25.50;99.90;;;;;;5070199;28;20234;-81
2021/09/18 11:59:44;;;;;;;15.82;11.73;;;25.50;99.90;;;;;;5067078;28;20203;-80
2021/09/18 12:02:11;;;;;;;17.83;11.15;;;25.00;99.90;;;;;;5064951;28;20231;-80
2021/09/18 12:04:43;;;;;;;17.27;11.73;;;24.90;99.90;;;;;;5068576;28;20223;-80
2021/09/18 12:07:13;;;;;;;15.80;11.65;;;25.10;99.90;;;;;;5072628;28;20295;-80
2021/09/18 12:09:40;;;;;;;15.30;10.88;;;24.90;99.90;;;;;;5052374;28;20660;-79
2021/09/18 12:12:08;;;;;;;12.20;10.20;;;24.80;99.90;;;;;;5058714;28;20643;-79
2021/09/18 12:14:38;;;;;;;10.95;8.52;;;24.70;99.90;;;;;;5073790;28;20294;-80
2021/09/18 12:17:16;;;;;;;9.38;8.13;;;24.50;99.90;;;;;;5074187;28;20212;-80
2021/09/18 12:19:44;;;;;;;10.25;8.30;;;24.50;99.90;;;;;;5073980;28;20239;-80
2021/09/18 12:22:13;;;;;;;9.10;7.38;;;24.40;99.90;;;;;;5073581;28;20286;-79
2021/09/18 12:24:41;;;;;;;12.07;8.98;;;24.90;99.90;;;;;;5073291;28;20290;-79
2021/09/18 12:27:29;;;;;;;12.23;9.20;;;25.10;99.90;;;;;;5073411;28;20199;-80
2021/09/18 12:29:58;;;;;;;12.25;10.15;;;24.70;99.90;;;;;;5083873;28;20201;-80
2021/09/18 12:32:25;;;;;;;11.05;8.80;;;24.80;99.90;;;;;;5071512;28;20222;-80
2021/09/18 12:34:55;;;;;;;11.90;9.25;;;24.90;99.90;;;;;;5070164;28;20307;-80
2021/09/18 12:37:29;;;;;;;10.32;8.57;;;24.90;99.90;;;;;;5072521;28;20206;-80
2021/09/18 12:39:56;;;;;;;10.38;8.85;;;24.70;99.90;;;;;;5071092;28;20208;-80